• Join FlightAware (Why Join?)
  • Login
  • US Flag 
07:58PM EDT


 

Airport Tracker/Info


-or-


 

Live Flight TrackerFlight Track Log ✈ N723NE ✈ 06-Nov-2013 ✈ KBAF - KDXR

Flight Track Log - Related Links

Times and Time Zones

All times are in EST time to prevent confusion due to time zone crossing. See the N723NE flight status page for this flight to view local times or setup timezone preferences in your user account.

Time Position Orientation Groundspeed Altitude Reporting Facility
EST Latitude Longitude Course Direction KTS MPH feet Rate Location/Type
02:06PM 42.1311 -72.7228 215° Southwest 71 82 1,200  Level Boston Center
02:07PM 42.1239 -72.7278 207° Southwest 70 81 1,300 360 Climbing Boston Center
02:07PM 42.1128 -72.7394 218° Southwest 79 91 1,600 360 Climbing Boston Center
02:08PM 42.1072 -72.7444 214° Southwest 75 86 1,700 300 Climbing Boston Center
02:08PM 42.0964 -72.7567 220° Southwest 76 87 1,900 360 Climbing Boston Center
02:09PM 42.0908 -72.7644 226° Southwest 73 84 2,100 360 Climbing Boston Center
02:10PM 42.0764 -72.7814 221° Southwest 74 85 2,400 240 Climbing Boston Center
02:10PM 42.0742 -72.7817 185° South 76 87 2,400 360 Level Boston Center
02:11PM 42.0625 -72.7967 224° Southwest 77 89 2,700 300 Climbing Boston Center
02:11PM 42.0581 -72.7997 207° Southwest 77 89 2,700 60 Level Boston Center
02:12PM 42.0447 -72.8103 210° Southwest 80 92 2,800 180 Climbing Boston Center
02:12PM 42.0394 -72.8158 218° Southwest 80 92 2,900 300 Climbing Boston Center
02:13PM 42.0256 -72.8294 216° Southwest 76 87 3,200 360 Climbing Boston Center
02:13PM 42.0219 -72.8361 234° Southwest 78 90 3,300 540 Climbing Boston Center
02:14PM 42.0061 -72.8514 216° Southwest 88 101 3,800 540 Climbing Boston Center
02:14PM 42.0028 -72.8556 223° Southwest 86 99 3,900 420 Climbing Boston Center
02:15PM 41.9892 -72.8714 221° Southwest 84 97 4,200 360 Climbing Boston Center
02:15PM 41.9858 -72.8756 223° Southwest 81 93 4,300 420 Climbing Boston Center
02:16PM 41.9728 -72.8886 217° Southwest 71 82 4,700 420 Climbing Boston Center
02:16PM 41.9686 -72.8914 206° Southwest 71 82 4,800 300 Climbing Boston Center
02:17PM 41.9514 -72.9047 210° Southwest 72 83 5,100 240 Climbing Boston Center
02:18PM 41.9394 -72.9142 210° Southwest 66 76 5,300 240 Climbing Boston Center
02:18PM 41.9358 -72.9167 207° Southwest 66 76 5,400 -240 Climbing Boston Center
02:19PM 41.9211 -72.9306 215° Southwest 78 90 5,100 -420 Descending Boston Center
02:19PM 41.9172 -72.9364 228° Southwest 84 97 5,000 -660 Descending Boston Center
02:20PM 41.8978 -72.9597 222° Southwest 109 125 4,400 -840 Descending Boston Center
02:20PM 41.8947 -72.9664 238° Southwest 105 121 4,200 -420 Descending Boston Center
02:21PM 41.8753 -72.9861 217° Southwest 112 129 4,000 -240 Descending Boston Center
02:21PM 41.8714 -72.9908 222° Southwest 105 121 4,000 60 Level Boston Center
02:22PM 41.8536 -73.0072 214° Southwest 104 120 4,100  Climbing Boston Center
02:22PM 41.8489 -73.0144 229° Southwest 103 119 4,000  Descending Boston Center
02:23PM 41.8317 -73.0308 215° Southwest 100 115 4,100 60 Climbing Boston Center
02:23PM 41.8250 -73.0392 223° Southwest 101 116 4,100  Level Boston Center
02:24PM 41.8050 -73.0558 212° Southwest 107 123 4,100  Level Boston Center
02:24PM 41.7992 -73.0606 211° Southwest 108 124 4,100  Level Boston Center
02:25PM 41.7814 -73.0761 213° Southwest 105 121 4,100  Level Boston Center
02:25PM 41.7756 -73.0844 227° Southwest 109 125 4,100 -120 Level Boston Center
02:26PM 41.7572 -73.0992 211° Southwest 109 125 4,000 -120 Descending Boston Center
02:26PM 41.7514 -73.1078 228° Southwest 107 123 4,000  Level Boston Center
02:27PM 41.7344 -73.1256 218° Southwest 101 116 4,000 60 Level Boston Center
02:27PM 41.7278 -73.1342 224° Southwest 104 120 4,100  Climbing Boston Center
02:28PM 41.7150 -73.1472 217° Southwest 105 121 4,000 -120 Descending Boston Center
02:28PM 41.7053 -73.1578 219° Southwest 103 119 4,000  Level Boston Center
02:29PM 41.6903 -73.1728 217° Southwest 108 124 4,000  Level Boston Center
02:29PM 41.6800 -73.1825 215° Southwest 111 128 4,000  Level Boston Center
02:30PM 41.6642 -73.1950 211° Southwest 108 124 4,000  Level Boston Center
02:30PM 41.6561 -73.2050 223° Southwest 105 121 4,000  Level Boston Center
02:31PM 41.6328 -73.2286 217° Southwest 109 125 4,000  Level Boston Center
02:33PM 41.6025 -73.2519 210° Southwest  Level FlightAware Approximate
02:40PM 41.4419 -73.4082 217° Southwest  Level FlightAware Approximate
02:41PM 41.4192 -73.4308 217° Southwest  Level FlightAware Approximate
02:42PM 41.3941 -73.4484 207° Southwest  Level FlightAware Approximate
02:43PM 41.3688 -73.4653 207° Southwest  Level FlightAware Approximate